Time;durP1;ratioP1;P1;durP2;ratioP2;P2;SDS_P1;SDS_P2;PMS_P1;PMS_P2;Temp;Humidity;BMP_temperature;BMP_pressure;BME280_temperature;BME280_humidity;BME280_pressure;Samples;Min_cycle;Max_cycle;Signal;HPM_P1;HPM_P2
2022/10/08 05:02:20;;;;;;;15.18;9.98;;;14.50;99.90;;;;;;6167354;23;20017;-76
2022/10/08 05:04:45;;;;;;;14.05;9.25;;;14.50;99.90;;;;;;6228149;23;20186;-77
2022/10/08 05:07:11;;;;;;;15.80;9.32;;;14.40;99.90;;;;;;6255706;23;20292;-78
2022/10/08 05:09:37;;;;;;;11.80;8.70;;;14.40;99.90;;;;;;6228000;23;19988;-76
2022/10/08 05:12:02;;;;;;;18.23;9.52;;;14.40;99.90;;;;;;6255586;23;20000;-77
2022/10/08 05:14:28;;;;;;;14.73;10.05;;;14.40;99.90;;;;;;6254783;23;20047;-75
2022/10/08 05:16:54;;;;;;;13.65;9.57;;;14.40;99.90;;;;;;6255603;23;20000;-76
2022/10/08 05:19:20;;;;;;;11.02;9.45;;;14.30;99.90;;;;;;6255486;23;20043;-75
2022/10/08 05:21:45;;;;;;;11.93;9.30;;;14.30;99.90;;;;;;6254014;23;20034;-76
2022/10/08 05:24:11;;;;;;;18.73;10.85;;;14.30;99.90;;;;;;6255504;23;20043;-75
2022/10/08 05:26:39;;;;;;;15.98;10.07;;;14.30;99.90;;;;;;6227766;23;20008;-76
2022/10/08 05:29:05;;;;;;;12.48;8.65;;;14.30;99.90;;;;;;6254940;23;20031;-76
2022/10/08 05:31:32;;;;;;;16.60;12.35;;;14.40;99.90;;;;;;6253295;23;20004;-76
2022/10/08 05:33:58;;;;;;;18.80;11.88;;;14.40;99.90;;;;;;6254937;23;20281;-76
2022/10/08 05:36:26;;;;;;;15.93;9.70;;;14.30;99.90;;;;;;6228049;23;19996;-76
2022/10/08 05:38:55;;;;;;;13.80;10.73;;;14.20;99.90;;;;;;6254931;23;20225;-77
2022/10/08 05:41:27;;;;;;;14.93;10.40;;;14.10;99.90;;;;;;6255253;23;20320;-78
2022/10/08 05:43:54;;;;;;;16.35;12.00;;;14.00;99.90;;;;;;6253797;23;20202;-77
2022/10/08 05:46:22;;;;;;;21.63;11.00;;;13.90;99.90;;;;;;6255035;23;20004;-76
2022/10/08 05:48:55;;;;;;;16.17;10.50;;;13.90;99.90;;;;;;6254280;23;20262;-74
2022/10/08 05:51:21;;;;;;;15.07;9.88;;;13.80;99.90;;;;;;6255173;23;20569;-77
2022/10/08 05:53:49;;;;;;;15.30;10.15;;;13.80;99.90;;;;;;6254849;23;20028;-77
2022/10/08 05:56:17;;;;;;;13.75;10.35;;;13.90;99.90;;;;;;6254943;23;20310;-78
2022/10/08 05:58:43;;;;;;;18.48;11.50;;;13.80;99.90;;;;;;6254351;23;20027;-78
2022/10/08 06:01:13;;;;;;;17.65;11.05;;;13.80;99.90;;;;;;6255347;23;20333;-76
2022/10/08 06:03:40;;;;;;;18.13;9.70;;;13.80;99.90;;;;;;6225701;23;20099;-76
2022/10/08 06:06:09;;;;;;;16.95;9.50;;;13.80;99.90;;;;;;6223536;23;20013;-76
2022/10/08 06:08:36;;;;;;;19.80;9.48;;;13.80;99.90;;;;;;6196971;23;20035;-77
2022/10/08 06:11:04;;;;;;;16.17;9.32;;;13.80;99.90;;;;;;6222908;23;20202;-76
2022/10/08 06:13:30;;;;;;;17.30;8.80;;;13.90;99.90;;;;;;6222733;23;20001;-76
2022/10/08 06:16:01;;;;;;;14.18;7.80;;;14.00;99.90;;;;;;6225239;23;20012;-77
2022/10/08 06:18:29;;;;;;;16.42;9.73;;;14.10;99.90;;;;;;6227179;23;20278;-77
2022/10/08 06:20:55;;;;;;;14.73;9.35;;;14.10;99.90;;;;;;6225779;23;20068;-77
2022/10/08 06:23:21;;;;;;;16.17;8.93;;;14.10;99.90;;;;;;6225586;23;20005;-77
2022/10/08 06:25:47;;;;;;;15.20;8.85;;;14.20;99.90;;;;;;6225405;23;20008;-79
2022/10/08 06:28:14;;;;;;;13.98;7.68;;;14.30;99.90;;;;;;6225457;23;20007;-78
2022/10/08 06:30:44;;;;;;;14.88;8.98;;;14.30;99.90;;;;;;6197803;23;20000;-77
2022/10/08 06:33:10;;;;;;;12.13;7.88;;;14.30;99.90;;;;;;6199207;23;20049;-78
2022/10/08 06:35:37;;;;;;;11.93;8.15;;;14.30;99.90;;;;;;6223428;23;20079;-77
2022/10/08 06:38:04;;;;;;;15.30;7.40;;;14.40;99.90;;;;;;6197717;23;20171;-77
2022/10/08 06:40:42;;;;;;;14.35;6.90;;;14.40;99.90;;;;;;6223663;23;20009;-75
2022/10/08 06:43:26;;;;;;;;;;;14.50;99.90;;;;;;6224500;23;20011;-75
2022/10/08 06:45:55;;;;;;;12.13;6.90;;;14.50;99.90;;;;;;6223549;23;19953;-76
2022/10/08 06:48:22;;;;;;;12.43;6.70;;;14.60;99.90;;;;;;6197242;23;20286;-78
2022/10/08 06:50:48;;;;;;;9.77;6.47;;;14.60;99.90;;;;;;6223957;23;20024;-77
2022/10/08 06:53:14;;;;;;;12.35;6.70;;;14.60;99.90;;;;;;6224258;23;20023;-76
2022/10/08 06:55:40;;;;;;;12.05;6.28;;;14.70;99.90;;;;;;6197381;23;20031;-76
2022/10/08 06:58:05;;;;;;;14.43;7.10;;;14.80;99.90;;;;;;6224164;23;20016;-76
2022/10/08 07:00:31;;;;;;;13.68;6.43;;;14.90;99.90;;;;;;6221735;23;20051;-75
2022/10/08 07:02:57;;;;;;;10.82;6.28;;;15.00;99.90;;;;;;6241612;23;20012;-76
2022/10/08 07:05:24;;;;;;;15.35;6.53;;;15.00;99.90;;;;;;6252681;23;20031;-75
2022/10/08 07:07:50;;;;;;;11.63;5.82;;;15.10;99.90;;;;;;6251873;23;20457;-76
2022/10/08 07:10:15;;;;;;;14.50;5.18;;;15.20;99.90;;;;;;6252515;23;20014;-77
2022/10/08 07:12:41;;;;;;;12.18;5.95;;;15.30;99.90;;;;;;6225872;23;20066;-75
2022/10/08 07:15:07;;;;;;;13.50;5.32;;;15.40;99.90;;;;;;6253152;23;20004;-75
2022/10/08 07:17:33;;;;;;;12.98;5.57;;;15.40;99.90;;;;;;6225606;23;20041;-75
2022/10/08 07:19:59;;;;;;;10.90;5.38;;;15.50;99.90;;;;;;6253187;23;20327;-75
2022/10/08 07:22:25;;;;;;;10.35;4.78;;;15.60;99.90;;;;;;6253088;23;20066;-76
2022/10/08 07:24:50;;;;;;;11.43;4.55;;;15.80;99.90;;;;;;6224647;23;20086;-79
2022/10/08 07:27:17;;;;;;;9.73;4.85;;;16.00;99.90;;;;;;6252711;23;20306;-75
2022/10/08 07:29:43;;;;;;;10.75;5.35;;;16.00;99.90;;;;;;6252589;23;20000;-76
2022/10/08 07:32:09;;;;;;;9.00;4.65;;;16.10;99.90;;;;;;6225964;23;20102;-76
2022/10/08 07:34:35;;;;;;;12.50;4.85;;;16.20;99.90;;;;;;6252011;23;20023;-77
2022/10/08 07:37:05;;;;;;;9.48;4.07;;;16.30;99.90;;;;;;6252327;23;20346;-77
2022/10/08 07:39:31;;;;;;;8.32;4.68;;;16.30;99.90;;;;;;6250626;23;20026;-80
2022/10/08 07:41:57;;;;;;;12.15;4.90;;;16.40;99.90;;;;;;6225297;23;20034;-75
2022/10/08 07:44:23;;;;;;;9.23;4.40;;;16.40;99.90;;;;;;6225680;23;19988;-76
2022/10/08 07:46:50;;;;;;;11.02;4.93;;;16.50;99.90;;;;;;6226594;23;20067;-78
2022/10/08 07:49:17;;;;;;;12.35;4.70;;;16.60;99.90;;;;;;6254039;23;20004;-76
2022/10/08 07:51:44;;;;;;;10.35;4.18;;;16.70;99.90;;;;;;6226937;23;20232;-75
2022/10/08 07:54:13;;;;;;;8.85;3.75;;;16.70;99.90;;;;;;6227282;23;20017;-77
2022/10/08 07:56:42;;;;;;;9.30;4.15;;;16.80;99.90;;;;;;6254230;23;20004;-76
2022/10/08 07:59:10;;;;;;;10.48;3.90;;;16.90;99.90;;;;;;6227049;23;20286;-75
2022/10/08 08:01:36;;;;;;;11.47;3.77;;;17.20;99.90;;;;;;6250007;23;20333;-76
2022/10/08 08:04:05;;;;;;;9.98;3.30;;;17.20;99.90;;;;;;6222208;23;20051;-77
2022/10/08 08:06:33;;;;;;;8.00;3.20;;;17.20;99.90;;;;;;6223413;23;20208;-79
2022/10/08 08:09:00;;;;;;;11.90;3.45;;;17.30;99.90;;;;;;6197004;23;20314;-75
2022/10/08 08:11:28;;;;;;;6.90;3.05;;;17.30;99.90;;;;;;6223381;23;20005;-77
2022/10/08 08:13:53;;;;;;;8.27;2.85;;;17.30;99.90;;;;;;6221483;23;20004;-77
2022/10/08 08:16:25;;;;;;;11.02;2.67;;;17.40;99.90;;;;;;6197088;23;20039;-75
2022/10/08 08:18:53;;;;;;;14.27;3.60;;;17.20;99.90;;;;;;6223083;23;20005;-78
2022/10/08 08:21:22;;;;;;;8.18;2.38;;;17.20;99.90;;;;;;6223033;23;20024;-76
2022/10/08 08:23:50;;;;;;;10.15;2.22;;;17.10;99.90;;;;;;6222821;23;20052;-79
2022/10/08 08:26:18;;;;;;;10.85;2.83;;;16.90;99.90;;;;;;6223341;23;20314;-78
2022/10/08 08:28:52;;;;;;;9.50;2.20;;;16.80;99.90;;;;;;6223275;23;20003;-78
2022/10/08 08:31:23;;;;;;;5.68;2.13;;;16.70;99.90;;;;;;6222100;23;20004;-78
2022/10/08 08:33:54;;;;;;;8.55;2.35;;;16.70;99.90;;;;;;6222563;23;20069;-78
2022/10/08 08:36:25;;;;;;;10.63;2.35;;;16.60;99.90;;;;;;6223046;23;20005;-76
2022/10/08 08:38:51;;;;;;;9.30;2.65;;;16.70;99.90;;;;;;6224581;23;20222;-74
2022/10/08 08:41:45;;;;;;;5.43;2.38;;;16.70;99.90;;;;;;6225054;23;20008;-75
2022/10/08 08:44:33;;;;;;;5.95;2.00;;;16.70;99.90;;;;;;6225035;23;20028;-76
2022/10/08 08:47:32;;;;;;;8.30;2.15;;;16.80;99.80;;;;;;6225032;23;20194;-77
2022/10/08 08:50:07;;;;;;;6.13;1.80;;;17.00;98.70;;;;;;6224988;23;20008;-78
2022/10/08 08:52:39;;;;;;;7.40;1.95;;;17.10;97.70;;;;;;6224000;23;20012;-77
2022/10/08 08:55:18;;;;;;;6.68;1.92;;;17.20;97.40;;;;;;6224907;23;20008;-78
2022/10/08 08:58:17;;;;;;;8.43;1.92;;;17.50;96.50;;;;;;6224904;23;20337;-79
2022/10/08 09:00:46;;;;;;;;;;;17.60;96.60;;;;;;6225095;23;20005;-78
2022/10/08 09:03:49;;;;;;;7.97;1.95;;;17.80;96.00;;;;;;6224577;23;19938;-77
2022/10/08 09:06:21;;;;;;;9.30;1.88;;;17.80;95.60;;;;;;6162205;23;20021;-79
2022/10/08 09:09:00;;;;;;;9.15;2.72;;;17.80;95.40;;;;;;6162284;23;20295;-76
2022/10/08 09:11:28;;;;;;;8.60;1.88;;;17.90;94.90;;;;;;6162773;23;20010;-78
2022/10/08 09:14:20;;;;;;;6.35;1.58;;;17.90;94.50;;;;;;6162193;23;20009;-79
2022/10/08 09:16:46;;;;;;;8.07;2.33;;;18.10;94.20;;;;;;6161997;23;20013;-77
2022/10/08 09:19:12;;;;;;;9.13;2.22;;;17.80;94.20;;;;;;6162902;23;20054;-79
2022/10/08 09:21:38;;;;;;;6.95;1.95;;;17.90;94.60;;;;;;6162069;23;20354;-77
2022/10/08 09:24:04;;;;;;;6.55;1.70;;;18.10;94.00;;;;;;6162990;23;20000;-77
2022/10/08 09:26:32;;;;;;;9.60;2.03;;;17.90;94.30;;;;;;6162782;23;20321;-77
2022/10/08 09:29:00;;;;;;;10.15;2.40;;;18.10;93.90;;;;;;6162390;23;20311;-78
2022/10/08 09:31:46;;;;;;;6.03;1.77;;;18.00;93.60;;;;;;6162960;23;20005;-76
2022/10/08 09:34:12;;;;;;;6.68;1.92;;;18.20;93.10;;;;;;6162962;23;20401;-76
2022/10/08 09:36:51;;;;;;;7.75;1.65;;;18.10;93.20;;;;;;6158935;23;20007;-78
2022/10/08 09:39:25;;;;;;;9.63;1.70;;;18.30;92.90;;;;;;6226900;23;20004;-78
2022/10/08 09:42:06;;;;;;;10.00;2.00;;;18.30;92.90;;;;;;6227886;23;20004;-76
2022/10/08 09:44:42;;;;;;;6.35;1.60;;;18.40;92.60;;;;;;6199417;23;20230;-78
2022/10/08 09:47:15;;;;;;;6.55;1.85;;;18.40;92.60;;;;;;6197793;23;20233;-76
2022/10/08 09:49:41;;;;;;;10.27;1.77;;;18.50;91.70;;;;;;6197411;23;20012;-77
2022/10/08 09:52:18;;;;;;;7.07;1.58;;;18.50;91.60;;;;;;6224623;23;20176;-76
2022/10/08 09:54:52;;;;;;;6.85;1.75;;;18.60;91.70;;;;;;6222568;23;20182;-78
2022/10/08 09:57:20;;;;;;;8.57;2.30;;;18.60;91.30;;;;;;6222623;23;20035;-76
2022/10/08 09:59:57;;;;;;;6.20;2.10;;;18.40;91.40;;;;;;6223985;23;20264;-76
2022/10/08 10:02:37;;;;;;;10.48;1.73;;;18.30;91.60;;;;;;6224246;23;20017;-76
2022/10/08 10:05:05;;;;;;;7.45;1.83;;;18.40;91.40;;;;;;6223945;23;20076;-76
2022/10/08 10:07:43;;;;;;;6.93;1.48;;;18.30;91.30;;;;;;6224307;23;20012;-77
2022/10/08 10:10:22;;;;;;;8.02;1.80;;;18.30;91.30;;;;;;6224660;23;20008;-76
2022/10/08 10:12:55;;;;;;;8.88;1.70;;;18.50;91.00;;;;;;6223661;23;20005;-75
2022/10/08 10:15:40;;;;;;;7.93;1.77;;;18.60;90.70;;;;;;6224440;23;20009;-75
2022/10/08 10:18:19;;;;;;;9.63;1.95;;;18.80;91.10;;;;;;6222771;23;20179;-76
2022/10/08 10:20:51;;;;;;;7.95;1.63;;;18.90;90.60;;;;;;6224057;23;20034;-75
2022/10/08 10:23:26;;;;;;;7.85;1.70;;;19.20;90.40;;;;;;6224563;23;20022;-75
2022/10/08 10:26:07;;;;;;;9.73;1.77;;;19.40;90.00;;;;;;6224886;23;20056;-78
2022/10/08 10:28:45;;;;;;;8.27;1.73;;;19.50;89.00;;;;;;6224759;23;20060;-79
2022/10/08 10:31:19;;;;;;;6.55;1.67;;;19.40;87.60;;;;;;6224637;23;20366;-77
2022/10/08 10:34:00;;;;;;;9.68;1.92;;;19.50;87.50;;;;;;6198041;23;20337;-76
2022/10/08 10:36:47;;;;;;;7.93;1.98;;;19.30;89.00;;;;;;6224090;23;20290;-77
2022/10/08 10:39:25;;;;;;;7.68;1.50;;;19.50;89.60;;;;;;6225193;23;20092;-78
2022/10/08 10:42:14;;;;;;;9.07;1.83;;;19.70;89.00;;;;;;6223067;23;20012;-78
2022/10/08 10:44:56;;;;;;;8.48;2.25;;;19.90;87.10;;;;;;6212279;23;20008;-78
2022/10/08 10:47:40;;;;;;;6.13;1.50;;;20.10;86.90;;;;;;6224635;23;20054;-78
2022/10/08 10:50:12;;;;;;;8.40;1.80;;;20.60;84.40;;;;;;6222680;23;20087;-76
2022/10/08 10:52:49;;;;;;;6.45;1.80;;;20.70;82.60;;;;;;6225493;23;20098;-79
2022/10/08 10:55:25;;;;;;;7.68;1.30;;;20.90;82.10;;;;;;6198341;23;20015;-75
2022/10/08 10:57:56;;;;;;;7.43;1.50;;;21.10;80.10;;;;;;6224394;23;20282;-76
2022/10/08 11:00:27;;;;;;;8.00;1.60;;;20.70;80.10;;;;;;6224115;23;20000;-78
2022/10/08 11:03:14;;;;;;;6.57;1.92;;;20.40;80.50;;;;;;6240672;23;20008;-77
2022/10/08 11:05:46;;;;;;;7.20;2.25;;;20.80;80.40;;;;;;6227512;23;20023;-75
2022/10/08 11:08:29;;;;;;;6.22;1.40;;;21.40;78.60;;;;;;6254565;23;20003;-75
2022/10/08 11:10:57;;;;;;;7.78;1.48;;;22.30;76.80;;;;;;6254128;23;20058;-77
2022/10/08 11:13:41;;;;;;;6.88;1.65;;;23.00;75.10;;;;;;6228169;23;20000;-76
2022/10/08 11:16:41;;;;;;;8.63;1.40;;;23.00;74.10;;;;;;6231173;23;20020;-78
2022/10/08 11:19:28;;;;;;;6.90;1.80;;;23.90;71.50;;;;;;6231415;23;20012;-77
2022/10/08 11:22:43;;;;;;;9.77;2.33;;;23.30;71.80;;;;;;6227937;23;20175;-78
2022/10/08 11:26:06;;;;;;;7.70;2.17;;;22.60;73.50;;;;;;6228892;23;20007;-77
2022/10/08 11:28:45;;;;;;;6.13;1.42;;;23.30;72.80;;;;;;6254280;23;20015;-79
2022/10/08 11:31:44;;;;;;;8.15;1.65;;;24.50;69.00;;;;;;6254186;23;20301;-79
2022/10/08 11:34:47;;;;;;;10.00;1.88;;;24.80;67.00;;;;;;6253822;23;20023;-77
2022/10/08 11:37:39;;;;;;;9.75;1.63;;;24.40;67.90;;;;;;6253689;23;20009;-76
2022/10/08 11:40:29;;;;;;;5.97;1.40;;;24.80;67.10;;;;;;6251687;23;20433;-77
2022/10/08 11:46:42;;;;;;;6.18;1.27;;;26.30;63.00;;;;;;6253763;23;20285;-78
2022/10/08 11:49:10;;;;;;;4.50;0.98;;;26.10;61.80;;;;;;6253438;23;20016;-79
2022/10/08 11:51:48;;;;;;;6.03;1.40;;;25.90;61.80;;;;;;6253823;23;20175;-79
2022/10/08 11:54:36;;;;;;;5.10;1.10;;;25.80;62.10;;;;;;6230071;23;20290;-79
2022/10/08 11:57:36;;;;;;;5.55;1.08;;;25.60;63.10;;;;;;6221137;23;20039;-78
2022/10/08 12:00:28;;;;;;;6.47;1.60;;;25.50;63.30;;;;;;6220666;23;20008;-78
2022/10/08 12:03:15;;;;;;;5.32;1.40;;;25.80;63.00;;;;;;6197706;23;20076;-78
2022/10/08 12:05:44;;;;;;;5.72;1.50;;;25.80;63.00;;;;;;6196663;23;20004;-79
2022/10/08 12:08:09;;;;;;;6.28;1.30;;;26.30;62.50;;;;;;6222868;23;19996;-78
2022/10/08 12:10:40;;;;;;;5.93;1.30;;;26.70;61.60;;;;;;6223370;23;20381;-77
2022/10/08 12:13:12;;;;;;;9.52;1.65;;;26.70;61.10;;;;;;6221744;23;20072;-78
2022/10/08 12:15:39;;;;;;;5.82;1.27;;;26.80;61.60;;;;;;6223351;23;20056;-77
2022/10/08 12:18:48;;;;;;;5.65;1.33;;;27.00;60.20;;;;;;6221938;23;20007;-78
2022/10/08 12:21:19;;;;;;;4.50;1.25;;;25.70;61.60;;;;;;6223300;23;20000;-78
2022/10/08 12:23:49;;;;;;;4.38;1.10;;;25.30;63.00;;;;;;6221496;23;20094;-76
2022/10/08 12:26:15;;;;;;;4.88;1.60;;;26.00;61.20;;;;;;6223030;23;20194;-77
2022/10/08 12:28:51;;;;;;;5.13;1.30;;;27.10;60.10;;;;;;6247626;23;20052;-77
2022/10/08 12:31:22;;;;;;;5.88;1.10;;;27.30;59.60;;;;;;6222332;23;20008;-76
2022/10/08 12:33:57;;;;;;;3.30;0.70;;;27.40;58.80;;;;;;6222665;23;20009;-78
2022/10/08 12:36:30;;;;;;;5.03;1.13;;;27.70;58.50;;;;;;6246671;23;20064;-77
2022/10/08 12:39:26;;;;;;;5.30;1.20;;;27.70;58.60;;;;;;6223602;23;20078;-77
2022/10/08 12:42:16;;;;;;;5.95;1.08;;;28.00;58.10;;;;;;6223356;23;20007;-77
2022/10/08 12:45:15;;;;;;;6.57;1.17;;;28.10;57.80;;;;;;6222259;23;20051;-76
2022/10/08 12:48:09;;;;;;;3.80;0.85;;;28.20;57.70;;;;;;6223603;23;20008;-75
2022/10/08 12:51:08;;;;;;;3.03;0.70;;;28.90;57.10;;;;;;6223509;23;20068;-76
2022/10/08 12:53:34;;;;;;;4.32;0.90;;;29.20;57.10;;;;;;6222601;23;20026;-76
2022/10/08 12:56:26;;;;;;;4.75;1.10;;;28.80;57.00;;;;;;6220599;23;20005;-75
2022/10/08 12:59:06;;;;;;;4.55;1.20;;;28.70;55.90;;;;;;6218897;23;20151;-76
2022/10/08 13:01:33;;;;;;;5.28;0.90;;;29.10;55.50;;;;;;6221454;23;20004;-76
2022/10/08 13:04:25;;;;;;;3.92;0.98;;;29.40;55.00;;;;;;6193894;23;20015;-76
2022/10/08 13:06:55;;;;;;;6.47;1.40;;;29.50;55.00;;;;;;6194859;23;20321;-76
2022/10/08 13:09:32;;;;;;;4.90;1.00;;;30.00;54.30;;;;;;6221469;23;20027;-75
2022/10/08 13:12:09;;;;;;;4.57;1.13;;;29.80;53.60;;;;;;6221246;23;20007;-76
2022/10/08 13:14:38;;;;;;;3.53;0.90;;;29.90;53.40;;;;;;6195647;23;20179;-76
2022/10/08 13:17:24;;;;;;;4.85;1.00;;;30.20;54.30;;;;;;6221011;23;20012;-75
2022/10/08 13:20:29;;;;;;;4.80;1.00;;;30.10;53.30;;;;;;6221710;23;20008;-74
2022/10/08 13:22:57;;;;;;;6.93;1.50;;;30.60;52.40;;;;;;6219753;23;20076;-75
2022/10/08 13:25:33;;;;;;;4.43;1.00;;;31.10;53.40;;;;;;6196939;23;20001;-76
2022/10/08 13:28:12;;;;;;;3.90;0.90;;;31.90;52.60;;;;;;6223226;23;20016;-76
2022/10/08 13:30:38;;;;;;;4.57;0.98;;;33.40;50.10;;;;;;6224092;23;20294;-75
2022/10/08 13:33:18;;;;;;;3.42;0.95;;;33.40;48.70;;;;;;6221266;23;20364;-76
2022/10/08 13:35:57;;;;;;;6.38;1.35;;;32.50;49.10;;;;;;6223403;23;20012;-75
2022/10/08 13:38:25;;;;;;;2.97;0.70;;;32.40;49.20;;;;;;6223366;23;20001;-77
2022/10/08 13:41:02;;;;;;;4.75;0.90;;;31.80;49.90;;;;;;6223124;23;20058;-76
2022/10/08 13:43:47;;;;;;;6.93;1.00;;;32.20;50.20;;;;;;6221812;23;20059;-76
2022/10/08 13:46:15;;;;;;;4.10;1.30;;;33.30;48.70;;;;;;6223162;23;20298;-77
2022/10/08 13:49:01;;;;;;;6.15;1.17;;;33.10;49.10;;;;;;6215543;23;20023;-77
2022/10/08 13:51:27;;;;;;;3.63;0.88;;;33.80;49.20;;;;;;6223399;23;20103;-76
2022/10/08 13:53:56;;;;;;;4.30;0.88;;;33.40;48.70;;;;;;6222613;23;20000;-76
2022/10/08 13:56:31;;;;;;;5.03;1.60;;;33.20;48.50;;;;;;6224421;23;20008;-76
2022/10/08 13:58:57;;;;;;;4.95;1.02;;;32.20;50.20;;;;;;6196984;23;20040;-75
2022/10/08 14:01:22;;;;;;;4.53;1.50;;;30.80;52.50;;;;;;6223202;23;20005;-76
2022/10/08 14:03:48;;;;;;;6.13;1.15;;;28.80;53.90;;;;;;6253251;23;20000;-76
2022/10/08 14:06:14;;;;;;;4.38;1.23;;;27.50;55.60;;;;;;6253064;23;20012;-77
2022/10/08 14:08:39;;;;;;;6.35;1.48;;;27.00;56.80;;;;;;6253163;23;20087;-76
2022/10/08 14:11:16;;;;;;;5.18;1.70;;;26.90;56.80;;;;;;6252279;23;20000;-76
2022/10/08 14:13:41;;;;;;;3.22;1.15;;;26.40;57.90;;;;;;6253669;23;20008;-78
2022/10/08 14:16:11;;;;;;;4.53;1.05;;;25.20;60.10;;;;;;6253050;23;19992;-76
2022/10/08 14:18:40;;;;;;;5.00;0.85;;;24.00;63.10;;;;;;6252221;23;20008;-75
2022/10/08 14:21:14;;;;;;;3.95;0.90;;;23.50;64.80;;;;;;6252991;23;20008;-77
2022/10/08 14:23:43;;;;;;;3.00;0.95;;;23.50;64.40;;;;;;6226509;23;20183;-75
2022/10/08 14:26:15;;;;;;;2.65;0.68;;;22.60;65.30;;;;;;6252738;23;20304;-75
2022/10/08 14:28:41;;;;;;;3.65;0.95;;;22.00;67.40;;;;;;6253662;23;20000;-76
2022/10/08 14:31:08;;;;;;;4.88;1.13;;;21.50;68.20;;;;;;6225994;23;20304;-75
2022/10/08 14:33:49;;;;;;;3.92;0.82;;;21.00;69.70;;;;;;6253045;23;20193;-75
2022/10/08 14:36:36;;;;;;;2.47;0.70;;;21.00;70.40;;;;;;6226192;23;20035;-74
2022/10/08 14:39:05;;;;;;;5.32;0.75;;;23.30;66.80;;;;;;6250991;23;20023;-74
2022/10/08 14:42:02;;;;;;;3.33;0.65;;;24.60;63.10;;;;;;6251326;23;20004;-75
2022/10/08 14:44:59;;;;;;;3.25;0.80;;;26.50;62.30;;;;;;6250505;23;20032;-76
2022/10/08 14:47:25;;;;;;;2.92;0.70;;;28.50;58.10;;;;;;6251349;23;20056;-76
2022/10/08 15:05:31;;;;;;;1.90;0.50;;;32.50;50.60;;;;;;6193683;22;20036;-76
2022/10/08 15:07:58;;;;;;;3.15;0.57;;;29.40;53.30;;;;;;6189652;23;20017;-77
2022/10/08 15:10:23;;;;;;;3.05;0.60;;;28.10;56.30;;;;;;6189888;23;20001;-76
2022/10/08 15:12:55;;;;;;;3.25;0.77;;;27.40;56.40;;;;;;6189626;23;20355;-74
2022/10/08 15:15:25;;;;;;;3.92;0.63;;;27.50;56.50;;;;;;6133450;23;20294;-75
2022/10/08 15:17:56;;;;;;;3.17;0.70;;;26.10;57.60;;;;;;6189448;23;20011;-74
2022/10/08 15:20:25;;;;;;;2.78;0.60;;;24.40;60.80;;;;;;6189172;23;20005;-75
2022/10/08 15:22:56;;;;;;;3.65;0.80;;;23.10;63.80;;;;;;6189456;23;20039;-76
2022/10/08 15:25:26;;;;;;;4.43;0.60;;;22.10;66.20;;;;;;6192669;23;20075;-76
2022/10/08 15:27:52;;;;;;;2.15;0.57;;;22.10;67.60;;;;;;6167935;23;20092;-74
2022/10/08 15:30:18;;;;;;;6.10;1.08;;;22.30;67.00;;;;;;6199057;23;20019;-77
2022/10/08 15:32:44;;;;;;;2.03;0.70;;;22.80;66.60;;;;;;6225251;23;20000;-79
2022/10/08 15:35:10;;;;;;;3.65;0.70;;;22.60;66.30;;;;;;6225204;23;20015;-77
2022/10/08 15:37:37;;;;;;;12.43;6.05;;;22.00;67.30;;;;;;6251085;23;20000;-77
2022/10/08 15:40:07;;;;;;;4.30;1.80;;;21.50;69.10;;;;;;6225478;23;20030;-77
2022/10/08 15:42:33;;;;;;;3.55;0.93;;;21.20;70.10;;;;;;6226263;23;20007;-77
2022/10/08 15:44:59;;;;;;;3.25;0.70;;;20.80;70.50;;;;;;6225554;23;20055;-79
2022/10/08 15:47:25;;;;;;;2.80;0.68;;;20.50;71.40;;;;;;6251031;23;20004;-77
2022/10/08 15:49:53;;;;;;;2.83;0.80;;;20.30;71.80;;;;;;6252645;23;20281;-78
2022/10/08 15:52:20;;;;;;;3.92;0.80;;;20.10;72.80;;;;;;6252095;23;20026;-76
2022/10/08 15:54:47;;;;;;;3.15;1.08;;;19.90;72.70;;;;;;6252829;23;20019;-78
2022/10/08 15:57:15;;;;;;;2.55;0.85;;;19.70;73.40;;;;;;6200591;23;20416;-79
2022/10/08 15:59:41;;;;;;;4.13;0.70;;;20.20;72.50;;;;;;6226112;23;20038;-77
2022/10/08 16:02:11;;;;;;;3.55;0.70;;;21.30;70.00;;;;;;6250331;23;20024;-78
2022/10/08 16:04:37;;;;;;;3.38;0.70;;;22.50;67.70;;;;;;6200227;23;20019;-76
2022/10/08 16:07:03;;;;;;;2.80;0.90;;;22.70;66.70;;;;;;6250983;23;20024;-77
2022/10/08 16:09:29;;;;;;;3.70;1.13;;;22.30;67.50;;;;;;6251789;23;20305;-76
2022/10/08 16:15:39;;;;;;;2.92;0.68;;;21.30;68.80;;;;;;6225719;23;20039;-78
2022/10/08 16:18:30;;;;;;;4.18;1.27;;;20.70;72.00;;;;;;6252097;23;20388;-79
2022/10/08 16:21:27;;;;;;;4.85;0.70;;;20.10;72.20;;;;;;6250881;23;20309;-79
2022/10/08 16:23:57;;;;;;;4.15;0.80;;;19.70;73.90;;;;;;6225504;23;20079;-80
2022/10/08 16:26:34;;;;;;;;;;;19.20;74.70;;;;;;6252171;22;20008;-82
2022/10/08 16:32:26;;;;;;;4.13;1.15;;;18.60;77.60;;;;;;6252310;23;20012;-83
2022/10/08 16:35:11;;;;;;;3.35;0.90;;;18.30;79.10;;;;;;6224945;23;20004;-80
2022/10/08 16:37:52;;;;;;;5.07;0.90;;;17.90;79.90;;;;;;6251402;23;20016;-80
2022/10/08 16:40:39;;;;;;;4.07;1.05;;;17.70;80.70;;;;;;6251052;23;20358;-83
2022/10/08 16:43:05;;;;;;;4.55;1.00;;;17.50;82.00;;;;;;6201714;23;20059;-81
2022/10/08 16:53:20;;;;;;;3.10;1.10;;;16.80;86.30;;;;;;6258678;23;19996;-80
2022/10/08 16:56:30;;;;;;;10.63;5.32;;;16.40;88.20;;;;;;6260717;23;20004;-79
2022/10/08 16:59:09;;;;;;;3.55;1.50;;;16.30;89.20;;;;;;6228766;23;20011;-79
2022/10/08 17:05:41;;;;;;;4.47;1.80;;;16.00;90.40;;;;;;6190530;23;20020;-79
2022/10/08 17:08:44;;;;;;;11.75;4.47;;;15.90;91.10;;;;;;6142486;23;20025;-80
2022/10/08 17:19:20;;;;;;;7.90;2.83;;;15.60;92.40;;;;;;6246393;23;20007;-80
2022/10/08 17:22:37;;;;;;;5.47;1.83;;;15.50;92.80;;;;;;6227201;23;20004;-82
2022/10/08 17:25:54;;;;;;;7.05;1.90;;;15.40;93.00;;;;;;6254441;23;20036;-80
2022/10/08 17:29:19;;;;;;;4.55;1.90;;;15.40;93.20;;;;;;6253669;23;20000;-81
2022/10/08 17:32:41;;;;;;;6.53;2.30;;;15.30;93.50;;;;;;6253473;23;20286;-82
2022/10/08 17:44:06;;;;;;;6.38;2.10;;;15.00;94.50;;;;;;6253497;23;20046;-81
2022/10/08 17:47:23;;;;;;;7.65;2.50;;;14.90;95.00;;;;;;6252459;23;20027;-81
2022/10/08 17:50:43;;;;;;;8.05;3.53;;;14.70;95.60;;;;;;6227512;23;20012;-80
2022/10/08 17:54:08;;;;;;;6.60;3.00;;;14.60;96.00;;;;;;6253459;23;20060;-81
2022/10/08 18:23:40;;;;;;;9.00;4.40;;;13.90;99.90;;;;;;6151640;22;20332;-81
2022/10/08 18:27:00;;;;;;;8.57;4.13;;;13.90;99.90;;;;;;6292320;22;20078;-80
2022/10/08 18:34:05;;;;;;;10.15;4.20;;;13.70;99.90;;;;;;6283841;22;20079;-80
2022/10/08 18:36:50;;;;;;;7.40;3.95;;;13.70;99.90;;;;;;6283623;22;20351;-79
2022/10/08 18:39:22;;;;;;;8.63;3.78;;;13.60;99.90;;;;;;6258170;22;20015;-82
2022/10/08 18:42:18;;;;;;;12.07;3.92;;;13.50;99.90;;;;;;6231910;22;20008;-81
2022/10/08 18:45:34;;;;;;;10.02;4.60;;;13.50;99.90;;;;;;6263242;22;20057;-81
2022/10/08 18:48:09;;;;;;;17.48;11.38;;;13.50;99.90;;;;;;6284306;22;19999;-84
2022/10/08 18:50:37;;;;;;;14.57;8.20;;;13.40;99.90;;;;;;6256701;22;20301;-82
2022/10/08 18:53:06;;;;;;;10.23;5.60;;;13.30;99.90;;;;;;6243881;22;20008;-84
2022/10/08 18:55:35;;;;;;;12.25;6.53;;;13.20;99.90;;;;;;6250335;23;20004;-80
2022/10/08 18:58:15;;;;;;;15.60;8.40;;;13.10;99.90;;;;;;6252576;23;20285;-81
2022/10/08 19:00:45;;;;;;;11.93;7.85;;;13.10;99.90;;;;;;6226690;23;20008;-82
2022/10/08 19:03:12;;;;;;;14.73;8.90;;;13.00;99.90;;;;;;6210052;23;20014;-81
2022/10/08 19:05:56;;;;;;;10.80;6.32;;;12.90;99.90;;;;;;6253761;23;20279;-81
2022/10/08 19:09:02;;;;;;;14.40;7.75;;;12.90;99.90;;;;;;6190464;23;20008;-82
2022/10/08 19:12:01;;;;;;;10.40;5.95;;;12.80;99.90;;;;;;6170852;23;20099;-83
2022/10/08 19:14:42;;;;;;;12.13;5.22;;;12.70;99.90;;;;;;6183119;23;20290;-83
2022/10/08 19:17:11;;;;;;;12.23;6.00;;;12.70;99.90;;;;;;6253982;23;20168;-80
2022/10/08 19:19:49;;;;;;;9.15;4.95;;;12.60;99.90;;;;;;6251658;23;20043;-81
2022/10/08 19:22:18;;;;;;;11.57;4.93;;;12.60;99.90;;;;;;6253363;23;20006;-83
2022/10/08 19:25:13;;;;;;;9.88;4.88;;;12.60;99.90;;;;;;6199311;23;20012;-82
2022/10/08 19:31:33;;;;;;;11.77;6.60;;;12.50;99.90;;;;;;6253375;23;20151;-81
2022/10/08 19:34:01;;;;;;;10.05;5.28;;;12.50;99.90;;;;;;6255237;23;20023;-81
2022/10/08 19:36:30;;;;;;;7.05;4.28;;;12.40;99.90;;;;;;6226189;23;20163;-84
2022/10/08 19:39:14;;;;;;;;;;;12.50;99.90;;;;;;6252941;23;20278;-82
2022/10/08 19:42:22;;;;;;;9.45;4.85;;;12.50;99.90;;;;;;6230238;23;19899;-82
2022/10/08 19:45:19;;;;;;;10.68;4.70;;;12.40;99.90;;;;;;6253583;23;20000;-83
2022/10/08 19:51:14;;;;;;;12.07;5.97;;;12.30;99.90;;;;;;6254155;23;20049;-80
2022/10/08 19:56:51;;;;;;;10.50;5.15;;;12.20;99.90;;;;;;6260989;23;20006;-78
2022/10/08 19:59:19;;;;;;;10.80;5.95;;;12.20;99.90;;;;;;6251933;23;20294;-81
2022/10/08 20:01:45;;;;;;;12.05;5.78;;;12.20;99.90;;;;;;6252967;23;20000;-82
2022/10/08 20:04:12;;;;;;;15.32;7.78;;;12.20;99.90;;;;;;6253663;23;20040;-82